Nearby METAR Reports

 

LIBV - Gioia Del Colle, Italy
Distance from station: SSØ 15km
Oppdatert: 15/08/2020 06:55
Klart
Klart
 Vind fra VNV
Vind: VNV 7 km/h
Temperatur: 23°C
Duggpunkt: 17°C
Fuktighet: 69%
Barometer: 1011 hPa
Oversikt: Klart
Visibility: greater than 10 km
2020/08/15 04:55 LIBV 150455Z 29004KT CAVOK 23/17 Q1011 RMK SKC VIS MIN 9999 WIND THR32 36004KT WIND THR14 30004KT BLU
LIBD - Bari/Palese Macc, Italy
Distance from station: NNV 26km
Oppdatert: 15/08/2020 06:50
Klart
Klart
 Vind fra varies
Vind: varies 2 km/h
Temperatur: 23°C
Duggpunkt: 16°C
Fuktighet: 65%
Barometer: 1010 hPa
Clouds: Klart
Visibility: 10 km
2020/08/15 04:50 LIBD 150450Z AUTO VRB01KT 9999 NCD 23/16 Q1010
 
LIBH - Marina Di Ginosa, Italy
Distance from station: S 53km
Oppdatert: 14/08/2020 19:55
NOT Current
Klart
Klart
 Vind fra Ø
Vind: Ø 11 km/h
Temperatur: 28°C
Heat Index: 34°C
Duggpunkt: 27°C
Fuktighet: 94%
Barometer: 1009 hPa
Oversikt: Klart
Visibility: greater than 10 km
2020/08/14 17:55 LIBH 141755Z 09006KT CAVOK 28/27 Q1009 RMK SKC QUK 1 QUL 0 VIS MAR 15 KM VIS MIN 9999
LIBG - Grottaglie(Civ/A, Italy
Distance from station: SØ 61km
Oppdatert: 14/08/2020 19:50
NOT Current
Klart
Klart
 Vind fra SV
Vind: SV 9 km/h
Temperatur: 29°C
Heat Index: 30°C
Duggpunkt: 19°C
Fuktighet: 55%
Barometer: 1010 hPa
Oversikt: Klart
Visibility: greater than 10 km
2020/08/14 17:50 LIBG 141750Z 23005KT CAVOK 29/19 Q1010
 
LIBR - Brindisi/Casale, Italy
Distance from station: ØSØ 96km
Oppdatert: 15/08/2020 06:50
Klart
Klart
 Vind fra V
Vind: V 7 km/h
Temperatur: 25°C
Duggpunkt: 19°C
Fuktighet: 69%
Barometer: 1010 hPa
Clouds: Klart
Visibility: 10 km
2020/08/15 04:50 LIBR 150450Z AUTO 26004KT 9999 NCD 25/19 Q1010
LIBA - Amendola (it-Afb, Italy
Distance from station: NV 118km
Oppdatert: 15/08/2020 06:55
Klart
Klart
 Vind fra V
Vind: V 17 km/h
Temperatur: 25°C
Duggpunkt: 20°C
Fuktighet: 74%
Barometer: 1010 hPa
Oversikt: Klart
Visibility: greater than 10 km
2020/08/15 04:55 LIBA 150455Z 28009KT CAVOK 25/20 Q1010 RMK SKC VIS MIN 9999 WIND THR11 28012KT WIND THR29 /////KT BLU
 
LIBF - Foggia/Gino Lisa, Italy
Distance from station: VNV 126km
Oppdatert: 14/08/2020 17:50
NOT Current
Klart
Klart
 Vind fra VSV
Vind: VSV 30 km/h
Temperatur: 35°C
Duggpunkt: 13°C
Fuktighet: 26%
Barometer: 1009 hPa
Oversikt: Klart
Visibility: greater than 10 km
2020/08/14 15:50 LIBF 141550Z 25016KT 220V280 CAVOK 35/13 Q1009
LIBN - Lecce (it-Afb), Italy
Distance from station: SØ 132km
Oppdatert: 15/08/2020 06:55
Delvis skyet
Delvis skyet
 Vind fra calm
Vind: Stille
Temperatur: 22°C
Duggpunkt: 22°C
Fuktighet: 100%
Barometer: 1010 hPa
Clouds: Delvis skyet
Visibility: 8 km
2020/08/15 04:55 LIBN 150455Z 00000KT 8000 NSC 22/22 Q1010 RMK SKC VIS MIN 8000 WIND THR14 00000KT WIND THR32 00000KT BLU